Time;durP1;ratioP1;P1;durP2;ratioP2;P2;SDS_P1;SDS_P2;PMS_P1;PMS_P2;Temp;Humidity;BMP_temperature;BMP_pressure;BME280_temperature;BME280_humidity;BME280_pressure;Samples;Min_cycle;Max_cycle;Signal;HPM_P1;HPM_P2
2023/04/20 00:02:01;;;;;;;1.13;0.93;;;7.60;99.90;;;;;;5003808;28;20125;-72
2023/04/20 00:04:27;;;;;;;3.55;2.08;;;7.60;99.90;;;;;;5002926;28;20061;-73
2023/04/20 00:06:53;;;;;;;2.75;1.50;;;7.60;99.90;;;;;;5004619;28;20045;-73
2023/04/20 00:09:18;;;;;;;1.45;1.02;;;7.60;99.90;;;;;;5004256;28;20046;-72
2023/04/20 00:11:44;;;;;;;0.85;0.82;;;7.60;99.90;;;;;;5002937;28;20551;-72
2023/04/20 00:14:10;;;;;;;1.65;1.55;;;7.50;99.90;;;;;;5002859;28;20520;-72
2023/04/20 00:16:35;;;;;;;2.10;1.75;;;7.50;99.90;;;;;;4986436;28;20149;-72
2023/04/20 00:19:01;;;;;;;1.33;1.23;;;7.50;99.90;;;;;;5002920;28;20042;-72
2023/04/20 00:21:26;;;;;;;1.42;1.25;;;7.50;99.90;;;;;;5004036;28;20046;-73
2023/04/20 00:23:52;;;;;;;13.60;2.25;;;7.50;99.90;;;;;;5003954;28;20077;-72
2023/04/20 00:26:18;;;;;;;1.90;1.40;;;7.50;99.90;;;;;;5003475;28;20173;-72
2023/04/20 00:28:44;;;;;;;1.17;1.10;;;7.50;99.90;;;;;;5003829;28;20165;-72
2023/04/20 00:31:10;;;;;;;0.75;0.60;;;7.50;99.90;;;;;;5004104;28;20053;-72
2023/04/20 00:33:35;;;;;;;1.40;1.25;;;7.50;99.90;;;;;;5002076;28;20045;-72
2023/04/20 00:36:01;;;;;;;3.08;1.00;;;7.50;99.90;;;;;;5002802;28;20045;-72
2023/04/20 00:38:27;;;;;;;4.85;2.50;;;7.50;99.90;;;;;;5003411;28;20041;-72
2023/04/20 00:40:56;;;;;;;2.38;1.00;;;7.50;99.90;;;;;;5002064;28;20061;-72
2023/04/20 00:43:22;;;;;;;2.03;1.35;;;7.50;99.90;;;;;;5004228;28;20056;-72
2023/04/20 00:45:47;;;;;;;1.52;1.08;;;7.40;99.90;;;;;;5003685;28;20041;-72
2023/04/20 00:48:13;;;;;;;1.67;1.30;;;7.40;99.90;;;;;;5002296;28;20121;-72
2023/04/20 00:50:39;;;;;;;1.50;1.38;;;7.40;99.90;;;;;;5003359;28;20042;-72
2023/04/20 00:53:06;;;;;;;0.98;0.80;;;7.40;99.90;;;;;;5003942;28;20038;-72
2023/04/20 00:55:34;;;;;;;1.00;0.95;;;7.40;99.90;;;;;;5001167;28;20042;-72
2023/04/20 00:58:00;;;;;;;1.20;1.10;;;7.40;99.90;;;;;;5003741;28;20038;-72
2023/04/20 01:00:26;;;;;;;1.45;1.20;;;7.40;99.90;;;;;;5003322;28;20085;-72
2023/04/20 01:02:51;;;;;;;1.88;1.13;;;7.30;99.90;;;;;;5003765;28;20089;-72
2023/04/20 01:05:17;;;;;;;0.95;0.65;;;7.30;99.90;;;;;;5003547;28;20050;-72
2023/04/20 01:07:43;;;;;;;0.90;0.70;;;7.30;99.90;;;;;;5002284;28;20042;-72
2023/04/20 01:10:09;;;;;;;0.75;0.75;;;7.30;99.90;;;;;;5001363;28;20520;-72
2023/04/20 01:12:34;;;;;;;3.13;1.67;;;7.30;99.90;;;;;;5002854;28;20041;-72
2023/04/20 01:15:02;;;;;;;0.75;0.75;;;7.30;99.90;;;;;;5003238;28;20064;-72
2023/04/20 01:17:28;;;;;;;1.15;0.88;;;7.30;99.90;;;;;;5003341;28;20050;-72
2023/04/20 01:19:53;;;;;;;1.42;0.40;;;7.30;99.90;;;;;;5003677;28;20104;-72
2023/04/20 01:22:20;;;;;;;2.08;0.82;;;7.30;99.90;;;;;;5003541;28;20284;-72
2023/04/20 01:24:46;;;;;;;1.02;0.80;;;7.30;99.90;;;;;;5004190;28;20293;-72
2023/04/20 01:27:12;;;;;;;0.60;0.60;;;7.30;99.90;;;;;;5006734;28;20111;-72
2023/04/20 01:29:38;;;;;;;1.40;0.73;;;7.30;99.90;;;;;;5005455;28;20045;-72
2023/04/20 01:32:04;;;;;;;1.23;1.15;;;7.30;99.90;;;;;;5007219;28;20176;-72
2023/04/20 01:34:31;;;;;;;1.10;1.05;;;7.40;99.90;;;;;;5002464;28;20046;-72
2023/04/20 01:36:56;;;;;;;1.17;1.05;;;7.40;99.90;;;;;;4994397;28;20484;-72
2023/04/20 01:39:22;;;;;;;0.75;0.75;;;7.40;99.90;;;;;;5006673;28;20042;-72
2023/04/20 01:41:47;;;;;;;1.10;1.10;;;7.40;99.90;;;;;;5006615;28;20482;-72
2023/04/20 01:44:13;;;;;;;3.45;1.33;;;7.40;99.90;;;;;;5006831;28;20052;-72
2023/04/20 01:46:39;;;;;;;2.25;0.93;;;7.40;99.90;;;;;;4988721;28;20038;-72
2023/04/20 01:49:05;;;;;;;0.90;0.68;;;7.40;99.90;;;;;;5006800;28;20060;-72
2023/04/20 01:51:32;;;;;;;2.05;0.82;;;7.50;99.90;;;;;;5006512;28;20089;-72
2023/04/20 01:53:59;;;;;;;1.05;0.85;;;7.50;99.90;;;;;;5006947;28;20120;-72
2023/04/20 01:56:25;;;;;;;1.13;0.95;;;7.50;99.90;;;;;;5005498;28;20050;-72
2023/04/20 01:58:51;;;;;;;1.25;0.73;;;7.50;99.90;;;;;;4989049;28;20042;-72
2023/04/20 02:01:16;;;;;;;0.68;0.60;;;7.50;99.90;;;;;;5006418;28;20096;-72
2023/04/20 02:03:42;;;;;;;0.50;0.50;;;7.50;99.90;;;;;;5006164;28;20049;-72
2023/04/20 02:06:08;;;;;;;1.95;1.17;;;7.50;99.90;;;;;;5005504;28;20570;-75
2023/04/20 02:08:34;;;;;;;0.47;0.47;;;7.50;99.90;;;;;;5006057;28;20113;-75
2023/04/20 02:11:00;;;;;;;0.85;0.70;;;7.50;99.90;;;;;;5004470;28;20048;-75
2023/04/20 02:13:25;;;;;;;0.25;0.25;;;7.50;99.90;;;;;;5006111;28;20042;-75
2023/04/20 02:15:51;;;;;;;0.80;0.80;;;7.50;99.90;;;;;;4989050;28;20038;-75
2023/04/20 02:18:17;;;;;;;3.25;1.80;;;7.50;99.90;;;;;;5006192;28;20064;-75
2023/04/20 02:20:43;;;;;;;0.98;0.57;;;7.40;99.90;;;;;;5006158;28;20085;-75
2023/04/20 02:23:10;;;;;;;1.88;0.77;;;7.50;99.90;;;;;;5004861;28;20045;-75
2023/04/20 02:25:35;;;;;;;1.05;0.47;;;7.50;99.90;;;;;;5005211;28;20042;-75
2023/04/20 02:28:01;;;;;;;1.23;0.85;;;7.40;99.90;;;;;;5004593;28;20389;-75
2023/04/20 02:30:27;;;;;;;4.32;1.00;;;7.40;99.90;;;;;;5004411;28;20046;-75
2023/04/20 02:32:52;;;;;;;6.63;2.50;;;7.40;99.90;;;;;;5006435;28;20042;-74
2023/04/20 02:35:18;;;;;;;1.15;1.08;;;7.40;99.90;;;;;;5004806;28;20405;-75
2023/04/20 02:37:44;;;;;;;0.68;0.68;;;7.40;99.90;;;;;;5005702;28;20049;-75
2023/04/20 02:40:11;;;;;;;0.82;0.77;;;7.30;99.90;;;;;;5004581;28;20053;-75
2023/04/20 02:42:36;;;;;;;1.00;0.85;;;7.30;99.90;;;;;;5005709;28;20041;-75
2023/04/20 02:45:02;;;;;;;2.65;1.00;;;7.30;99.90;;;;;;5005740;28;20103;-75
2023/04/20 02:47:28;;;;;;;1.08;0.60;;;7.30;99.90;;;;;;5004968;28;20051;-75
2023/04/20 02:49:54;;;;;;;0.75;0.60;;;7.30;99.90;;;;;;5006134;28;20583;-75
2023/04/20 02:52:19;;;;;;;1.63;0.98;;;7.30;99.90;;;;;;5006381;28;20073;-75
2023/04/20 02:54:46;;;;;;;3.33;1.13;;;7.20;99.90;;;;;;5002901;28;20217;-75
2023/04/20 02:57:11;;;;;;;3.63;2.00;;;7.20;99.90;;;;;;5005668;28;20037;-75
2023/04/20 02:59:37;;;;;;;0.98;0.98;;;7.20;99.90;;;;;;5005122;28;20053;-75
2023/04/20 03:02:03;;;;;;;2.08;1.45;;;7.20;99.90;;;;;;5003711;28;20489;-75
2023/04/20 03:04:29;;;;;;;1.85;0.60;;;7.20;99.90;;;;;;5005328;28;20053;-75
2023/04/20 03:06:55;;;;;;;1.30;1.00;;;7.20;99.90;;;;;;5005499;28;20037;-74
2023/04/20 03:09:22;;;;;;;1.45;1.35;;;7.20;99.90;;;;;;5004792;28;20054;-75
2023/04/20 03:11:49;;;;;;;3.03;1.75;;;7.20;99.90;;;;;;5005085;28;20068;-75
2023/04/20 03:14:15;;;;;;;0.70;0.70;;;7.20;99.90;;;;;;5003996;28;20543;-75
2023/04/20 03:16:41;;;;;;;0.90;0.85;;;7.20;99.90;;;;;;5004695;28;20045;-75
2023/04/20 03:19:06;;;;;;;3.10;1.13;;;7.20;99.90;;;;;;5003921;28;20054;-75
2023/04/20 03:21:32;;;;;;;1.50;1.25;;;7.20;99.90;;;;;;5004775;28;20041;-75
2023/04/20 03:23:59;;;;;;;1.83;1.00;;;7.20;99.90;;;;;;5003367;28;20062;-75
2023/04/20 03:26:25;;;;;;;1.25;0.88;;;7.20;99.90;;;;;;5004832;28;20037;-75
2023/04/20 03:28:51;;;;;;;2.22;1.00;;;7.20;99.90;;;;;;5004219;28;20049;-75
2023/04/20 03:31:17;;;;;;;2.60;1.55;;;7.20;99.90;;;;;;5004735;28;20092;-75
2023/04/20 03:33:42;;;;;;;1.42;1.33;;;7.20;99.90;;;;;;5003370;28;20484;-75
2023/04/20 03:36:08;;;;;;;0.60;0.60;;;7.30;99.90;;;;;;5005109;28;20085;-75
2023/04/20 03:38:34;;;;;;;2.75;0.57;;;7.30;99.90;;;;;;5003619;28;20148;-75
2023/04/20 03:41:00;;;;;;;1.90;0.95;;;7.30;99.90;;;;;;5003922;28;20048;-75
2023/04/20 03:43:25;;;;;;;2.80;1.55;;;7.30;99.90;;;;;;5004363;28;20048;-75
2023/04/20 03:45:51;;;;;;;2.45;1.27;;;7.40;99.90;;;;;;5004913;28;20050;-74
2023/04/20 03:48:17;;;;;;;0.73;0.73;;;7.30;99.90;;;;;;5002934;28;20463;-75
2023/04/20 03:50:42;;;;;;;1.38;1.27;;;7.40;99.90;;;;;;5004107;28;20042;-75
2023/04/20 03:53:08;;;;;;;6.70;1.25;;;7.40;99.90;;;;;;5004993;28;20551;-75
2023/04/20 03:55:33;;;;;;;1.50;0.40;;;7.40;99.90;;;;;;5003277;28;20046;-75
2023/04/20 03:57:59;;;;;;;2.35;1.55;;;7.40;99.90;;;;;;5004259;28;20052;-75
2023/04/20 04:00:24;;;;;;;0.70;0.60;;;7.40;99.90;;;;;;5004167;28;20054;-75
2023/04/20 04:02:50;;;;;;;2.88;1.35;;;7.40;99.90;;;;;;5004548;28;20104;-75
2023/04/20 04:05:15;;;;;;;1.65;1.02;;;7.40;99.90;;;;;;5004730;28;20057;-75
2023/04/20 04:07:41;;;;;;;1.15;1.05;;;7.40;99.90;;;;;;5003937;28;20042;-74
2023/04/20 04:10:07;;;;;;;2.30;1.40;;;7.50;99.90;;;;;;5003386;28;20103;-75
2023/04/20 04:12:33;;;;;;;0.75;0.75;;;7.50;99.90;;;;;;5002871;28;20046;-75
2023/04/20 04:14:59;;;;;;;4.20;1.70;;;7.50;99.90;;;;;;5003683;28;20057;-75
2023/04/20 04:17:24;;;;;;;2.03;1.35;;;7.50;99.90;;;;;;5004370;28;20049;-75
2023/04/20 04:19:50;;;;;;;3.35;1.92;;;7.50;99.90;;;;;;5004795;28;20053;-75
2023/04/20 04:22:16;;;;;;;1.08;0.95;;;7.60;99.90;;;;;;5004081;28;20532;-75
2023/04/20 04:24:41;;;;;;;3.92;2.35;;;7.60;99.90;;;;;;5003035;28;20136;-75
2023/04/20 04:27:07;;;;;;;0.80;0.80;;;7.60;99.90;;;;;;5004072;28;20034;-75
2023/04/20 04:29:37;;;;;;;0.88;0.88;;;7.60;99.90;;;;;;5003593;28;20089;-75
2023/04/20 04:32:04;;;;;;;6.85;1.50;;;7.60;99.90;;;;;;5004021;28;20520;-75
2023/04/20 04:34:30;;;;;;;1.13;1.08;;;7.60;99.90;;;;;;5004000;28;20048;-75
2023/04/20 04:36:56;;;;;;;2.85;0.60;;;7.60;99.90;;;;;;5003761;28;20049;-74
2023/04/20 04:39:22;;;;;;;1.10;0.85;;;7.70;99.90;;;;;;5003527;28;20041;-75
2023/04/20 04:41:48;;;;;;;1.23;1.10;;;7.70;99.90;;;;;;5003588;28;20774;-75
2023/04/20 04:44:14;;;;;;;4.30;0.98;;;7.70;99.90;;;;;;5003343;28;20088;-75
2023/04/20 04:46:40;;;;;;;1.20;1.13;;;7.70;99.90;;;;;;5001493;28;20125;-75
2023/04/20 04:49:06;;;;;;;1.15;0.75;;;7.70;99.90;;;;;;5003080;28;20042;-75
2023/04/20 04:51:32;;;;;;;1.38;0.95;;;7.70;99.90;;;;;;5003824;28;20073;-75
2023/04/20 04:53:58;;;;;;;1.60;0.55;;;7.70;99.90;;;;;;5002834;28;20093;-75
2023/04/20 04:56:23;;;;;;;1.42;1.33;;;7.70;99.90;;;;;;5002452;28;20684;-75
2023/04/20 04:58:49;;;;;;;1.15;1.02;;;7.70;99.90;;;;;;5003798;28;20042;-75
2023/04/20 05:01:15;;;;;;;1.25;0.90;;;7.70;99.90;;;;;;5007810;28;20065;-75
2023/04/20 05:03:40;;;;;;;1.52;1.30;;;7.70;99.90;;;;;;5005822;28;20141;-73
2023/04/20 05:06:06;;;;;;;2.83;2.22;;;7.70;99.90;;;;;;5005828;28;20527;-72
2023/04/20 05:08:33;;;;;;;0.93;0.90;;;7.70;99.90;;;;;;5006511;28;20049;-72
2023/04/20 05:10:58;;;;;;;3.15;0.65;;;7.80;99.90;;;;;;5006097;28;20048;-72
2023/04/20 05:13:24;;;;;;;1.35;1.25;;;7.70;99.90;;;;;;5007730;28;20034;-72
2023/04/20 05:15:49;;;;;;;3.85;1.33;;;7.80;99.90;;;;;;5007398;28;20037;-73
2023/04/20 05:18:15;;;;;;;1.58;1.48;;;7.80;99.90;;;;;;5005865;28;20053;-73
2023/04/20 05:20:41;;;;;;;5.78;1.00;;;7.80;99.90;;;;;;5006466;28;20084;-73
2023/04/20 05:23:07;;;;;;;0.80;0.80;;;7.80;99.90;;;;;;5005628;28;20042;-74
2023/04/20 05:25:33;;;;;;;7.07;1.77;;;7.80;99.90;;;;;;4988092;28;20053;-74
2023/04/20 05:27:59;;;;;;;1.00;0.80;;;7.80;99.90;;;;;;5005180;28;20515;-74
2023/04/20 05:30:24;;;;;;;0.82;0.82;;;7.80;99.90;;;;;;5003073;28;20041;-74
2023/04/20 05:32:50;;;;;;;1.33;1.15;;;7.80;99.90;;;;;;5005926;28;20041;-74
2023/04/20 05:35:16;;;;;;;5.25;1.42;;;7.80;99.90;;;;;;5005935;28;20122;-75
2023/04/20 05:37:41;;;;;;;2.10;1.58;;;7.90;99.90;;;;;;5003356;28;20048;-75
2023/04/20 05:40:08;;;;;;;3.17;1.50;;;7.90;99.90;;;;;;4998976;28;20038;-75
2023/04/20 05:42:34;;;;;;;1.15;0.90;;;7.90;99.90;;;;;;5003052;28;20053;-75
2023/04/20 05:44:59;;;;;;;0.50;0.50;;;7.90;99.90;;;;;;5019291;28;20042;-75
2023/04/20 05:47:26;;;;;;;1.33;0.73;;;8.00;99.90;;;;;;5006797;28;20123;-75
2023/04/20 05:49:52;;;;;;;2.08;1.08;;;8.00;99.90;;;;;;5002713;28;20349;-75
2023/04/20 05:52:18;;;;;;;6.88;1.95;;;8.00;99.90;;;;;;4986603;28;20045;-73
2023/04/20 05:54:43;;;;;;;3.47;0.70;;;8.10;99.90;;;;;;5004769;28;20104;-75
2023/04/20 05:57:10;;;;;;;0.77;0.73;;;8.00;99.90;;;;;;5005452;28;20045;-74
2023/04/20 05:59:36;;;;;;;1.60;1.45;;;8.10;99.90;;;;;;5003907;28;20145;-80
2023/04/20 06:02:02;;;;;;;2.60;0.95;;;8.10;99.90;;;;;;5004163;28;20052;-77
2023/04/20 06:04:29;;;;;;;1.13;0.63;;;8.10;99.90;;;;;;5005362;28;20476;-77
2023/04/20 06:06:55;;;;;;;1.27;0.70;;;8.10;99.90;;;;;;5005653;28;20064;-75
2023/04/20 06:09:20;;;;;;;0.75;0.75;;;8.10;99.90;;;;;;5004429;28;20041;-77
2023/04/20 06:11:46;;;;;;;1.17;1.08;;;8.10;99.90;;;;;;5003779;28;20034;-76
2023/04/20 06:14:13;;;;;;;1.90;0.95;;;8.10;99.90;;;;;;5003566;28;20100;-76
2023/04/20 06:16:39;;;;;;;1.00;0.88;;;8.20;99.90;;;;;;5005155;28;20046;-77
2023/04/20 06:19:05;;;;;;;0.75;0.68;;;8.20;99.90;;;;;;5004158;28;20050;-77
2023/04/20 06:21:33;;;;;;;0.93;0.93;;;8.20;99.90;;;;;;5005326;28;20142;-76
2023/04/20 06:23:58;;;;;;;5.53;0.90;;;8.20;99.90;;;;;;5008133;28;20098;-75
2023/04/20 06:26:24;;;;;;;3.80;1.23;;;8.20;99.90;;;;;;5005866;28;20132;-75
2023/04/20 06:28:51;;;;;;;3.05;1.50;;;8.20;99.90;;;;;;5005092;28;20049;-75
2023/04/20 06:31:17;;;;;;;1.08;0.75;;;8.30;99.90;;;;;;4987602;28;20389;-74
2023/04/20 06:33:43;;;;;;;1.95;1.40;;;8.20;99.90;;;;;;5004722;28;20061;-76
2023/04/20 06:36:09;;;;;;;3.00;0.95;;;8.20;99.90;;;;;;5005168;28;20493;-76
2023/04/20 06:38:34;;;;;;;1.00;0.75;;;8.20;99.90;;;;;;4985920;28;20068;-77
2023/04/20 06:41:03;;;;;;;0.50;0.50;;;8.20;99.90;;;;;;5004606;28;20046;-76
2023/04/20 06:43:29;;;;;;;2.97;1.58;;;8.30;99.90;;;;;;5004532;28;20145;-77
2023/04/20 06:45:55;;;;;;;2.13;1.15;;;8.30;99.90;;;;;;5004557;28;20485;-74
2023/04/20 06:48:21;;;;;;;0.88;0.88;;;8.30;99.90;;;;;;5004710;28;20053;-76
2023/04/20 06:50:48;;;;;;;1.40;1.30;;;8.30;99.90;;;;;;5002909;28;20046;-76
2023/04/20 06:53:14;;;;;;;1.25;1.15;;;8.30;99.90;;;;;;4986308;28;20042;-76
2023/04/20 06:55:39;;;;;;;1.80;0.70;;;8.30;99.90;;;;;;5003727;28;20373;-74
2023/04/20 06:58:05;;;;;;;1.23;0.77;;;8.30;99.90;;;;;;5004183;28;20505;-76
2023/04/20 07:00:31;;;;;;;4.03;1.73;;;8.40;99.90;;;;;;5003674;28;20623;-76
2023/04/20 07:02:56;;;;;;;4.65;1.55;;;8.30;99.90;;;;;;5002939;28;20141;-76
2023/04/20 07:05:22;;;;;;;1.75;0.50;;;8.40;99.90;;;;;;5004681;28;20411;-75
2023/04/20 07:07:48;;;;;;;2.15;1.25;;;8.30;99.90;;;;;;5002285;28;20077;-76
2023/04/20 07:10:14;;;;;;;1.70;0.73;;;8.30;99.90;;;;;;5001959;28;20042;-74
2023/04/20 07:12:41;;;;;;;1.38;0.75;;;8.30;99.90;;;;;;5002722;28;20645;-75
2023/04/20 07:15:07;;;;;;;1.23;1.05;;;8.30;99.90;;;;;;5002515;28;20508;-76
2023/04/20 07:17:34;;;;;;;1.27;0.85;;;8.30;99.90;;;;;;4986542;28;20037;-76
2023/04/20 07:20:09;;;;;;;2.88;0.65;;;8.30;99.90;;;;;;5002654;28;20054;-76
2023/04/20 07:22:35;;;;;;;1.50;0.80;;;8.20;99.90;;;;;;5002723;28;20046;-76
2023/04/20 07:25:02;;;;;;;0.90;0.60;;;8.20;99.90;;;;;;5001629;28;20042;-76
2023/04/20 07:27:29;;;;;;;0.70;0.70;;;8.20;99.90;;;;;;5001970;28;20049;-76
2023/04/20 07:29:57;;;;;;;1.23;1.17;;;8.10;99.90;;;;;;5002439;28;20143;-75
2023/04/20 07:32:22;;;;;;;2.35;1.40;;;8.10;99.90;;;;;;5002841;28;20042;-76
2023/04/20 07:34:48;;;;;;;4.15;1.95;;;8.00;99.90;;;;;;5003016;28;20056;-76
2023/04/20 07:37:14;;;;;;;2.72;1.33;;;8.00;99.90;;;;;;5003889;28;20556;-77
2023/04/20 07:39:39;;;;;;;2.60;2.08;;;7.90;99.90;;;;;;5002317;28;20117;-77
2023/04/20 07:42:05;;;;;;;1.50;1.30;;;7.80;99.90;;;;;;5001971;28;20053;-76
2023/04/20 07:44:31;;;;;;;2.50;1.08;;;7.70;99.90;;;;;;5003263;28;20530;-76
2023/04/20 07:46:56;;;;;;;9.85;1.90;;;7.70;99.90;;;;;;5003544;28;20045;-74
2023/04/20 07:49:23;;;;;;;0.77;0.77;;;7.60;99.90;;;;;;5003760;28;20042;-77
2023/04/20 07:51:49;;;;;;;0.70;0.70;;;7.60;99.90;;;;;;5003445;28;20060;-74
2023/04/20 07:54:14;;;;;;;0.57;0.57;;;7.60;99.90;;;;;;5002585;28;20042;-77
2023/04/20 07:56:40;;;;;;;1.65;0.68;;;7.60;99.90;;;;;;5002634;28;20447;-76
2023/04/20 07:59:06;;;;;;;2.60;1.02;;;7.50;99.90;;;;;;5003459;28;20104;-77
2023/04/20 08:01:31;;;;;;;1.70;1.40;;;7.60;99.90;;;;;;5002931;28;20121;-76
2023/04/20 08:03:57;;;;;;;1.05;0.50;;;7.50;99.90;;;;;;5003052;28;20556;-76
2023/04/20 08:06:22;;;;;;;1.75;1.17;;;7.50;99.90;;;;;;5003745;28;20132;-76
2023/04/20 08:08:48;;;;;;;1.67;1.13;;;7.50;99.90;;;;;;5002369;28;20145;-76
2023/04/20 08:11:13;;;;;;;2.75;0.88;;;7.50;99.90;;;;;;5003145;28;20049;-76
2023/04/20 08:13:40;;;;;;;2.08;0.90;;;7.50;99.90;;;;;;5002828;28;20520;-76
2023/04/20 08:16:06;;;;;;;1.90;0.82;;;7.50;99.90;;;;;;5018210;28;20062;-76
2023/04/20 08:18:31;;;;;;;0.73;0.73;;;7.50;99.90;;;;;;5017812;28;20524;-74
2023/04/20 08:20:57;;;;;;;1.05;0.85;;;7.40;99.90;;;;;;5001364;28;20089;-74
2023/04/20 08:23:26;;;;;;;1.25;0.70;;;7.50;99.90;;;;;;5002773;28;20061;-76
2023/04/20 08:25:53;;;;;;;1.10;0.95;;;7.40;99.90;;;;;;5001842;28;20536;-77
2023/04/20 08:28:19;;;;;;;0.95;0.95;;;7.40;99.90;;;;;;5003212;28;20044;-76
2023/04/20 08:30:45;;;;;;;5.75;1.73;;;7.40;99.90;;;;;;5017489;28;20054;-77
2023/04/20 08:33:11;;;;;;;1.80;0.90;;;7.40;99.90;;;;;;5002291;28;20161;-76
2023/04/20 08:35:36;;;;;;;1.35;1.05;;;7.40;99.90;;;;;;5002551;28;20038;-76
2023/04/20 08:38:02;;;;;;;1.38;1.25;;;7.40;99.90;;;;;;5002097;28;20440;-77
2023/04/20 08:40:29;;;;;;;0.93;0.68;;;7.40;99.90;;;;;;5001437;28;20141;-74
2023/04/20 08:42:55;;;;;;;1.60;1.50;;;7.50;99.90;;;;;;5001636;28;20042;-76
2023/04/20 08:45:21;;;;;;;2.78;1.77;;;7.50;99.90;;;;;;5003357;28;20056;-75
2023/04/20 08:47:48;;;;;;;1.45;1.08;;;7.50;99.90;;;;;;5001885;28;20045;-76
2023/04/20 08:50:15;;;;;;;4.03;2.58;;;7.50;99.90;;;;;;5002474;28;20085;-76
2023/04/20 08:52:41;;;;;;;2.17;1.38;;;7.50;99.90;;;;;;5002230;28;20033;-76
2023/04/20 08:55:07;;;;;;;1.67;1.40;;;7.50;99.90;;;;;;5000197;28;20077;-74
2023/04/20 08:57:33;;;;;;;2.28;2.08;;;7.60;99.90;;;;;;5006343;28;20188;-77
2023/04/20 08:59:58;;;;;;;2.88;1.23;;;7.60;99.90;;;;;;4999773;28;20125;-75
2023/04/20 09:02:24;;;;;;;1.80;1.70;;;7.60;99.90;;;;;;5000511;28;20108;-75
2023/04/20 09:05:03;;;;;;;1.27;1.00;;;7.60;99.90;;;;;;5002074;28;20077;-75
2023/04/20 09:07:29;;;;;;;2.20;1.42;;;7.70;99.90;;;;;;5002582;28;20058;-76
2023/04/20 09:09:59;;;;;;;2.05;1.05;;;7.60;99.90;;;;;;5000262;28;20108;-76
2023/04/20 09:12:26;;;;;;;2.33;1.48;;;7.70;99.90;;;;;;5002422;28;20165;-76
2023/04/20 09:14:52;;;;;;;3.25;0.90;;;7.60;99.90;;;;;;5001802;28;20523;-75
2023/04/20 09:17:33;;;;;;;2.22;1.40;;;7.60;99.90;;;;;;5002527;28;20088;-76
2023/04/20 09:19:58;;;;;;;1.63;1.52;;;7.60;99.90;;;;;;5020464;28;20045;-76
2023/04/20 09:22:32;;;;;;;1.77;0.80;;;7.60;99.90;;;;;;5018541;28;20100;-76
2023/04/20 09:24:58;;;;;;;1.60;1.10;;;7.50;99.90;;;;;;4998326;28;20173;-75
2023/04/20 09:27:25;;;;;;;2.08;1.35;;;7.50;99.90;;;;;;5018331;28;20578;-75
2023/04/20 09:30:02;;;;;;;1.90;0.88;;;7.50;99.90;;;;;;5001722;28;20412;-76
2023/04/20 09:32:28;;;;;;;4.32;1.67;;;7.50;99.90;;;;;;5001831;28;20045;-75
2023/04/20 09:34:55;;;;;;;5.10;1.13;;;7.50;99.90;;;;;;5002002;28;20037;-75
2023/04/20 09:37:21;;;;;;;1.95;1.55;;;7.60;99.90;;;;;;5003112;28;20096;-74
2023/04/20 09:39:48;;;;;;;1.45;1.23;;;7.60;99.90;;;;;;5016568;28;20042;-76
2023/04/20 09:42:15;;;;;;;8.40;1.77;;;7.60;99.90;;;;;;5002606;28;20046;-76
2023/04/20 09:44:42;;;;;;;1.50;1.20;;;7.70;99.90;;;;;;5002428;28;20034;-76
2023/04/20 09:47:07;;;;;;;2.88;1.85;;;7.70;99.90;;;;;;5006346;28;20126;-75
2023/04/20 09:49:33;;;;;;;1.17;1.08;;;7.70;99.90;;;;;;5005502;28;20128;-75
2023/04/20 09:52:01;;;;;;;1.23;1.13;;;7.80;99.90;;;;;;5004961;28;20081;-75
2023/04/20 09:54:28;;;;;;;5.50;1.80;;;7.90;99.90;;;;;;5004300;28;20038;-75
2023/04/20 09:56:55;;;;;;;2.47;2.15;;;7.90;99.90;;;;;;5006600;28;20124;-76
2023/04/20 09:59:21;;;;;;;1.90;1.70;;;7.90;99.90;;;;;;4988668;28;20365;-74
2023/04/20 10:01:47;;;;;;;2.30;1.48;;;8.00;99.90;;;;;;5005810;28;20467;-75
2023/04/20 10:04:13;;;;;;;5.18;1.63;;;7.90;99.90;;;;;;5005819;28;20140;-74
2023/04/20 10:06:50;;;;;;;3.13;1.98;;;8.00;99.90;;;;;;5005309;28;20070;-75
2023/04/20 10:09:22;;;;;;;2.88;2.20;;;8.00;99.90;;;;;;5004918;28;20082;-75
2023/04/20 10:11:47;;;;;;;4.13;1.60;;;8.10;99.90;;;;;;5004162;28;20125;-76
2023/04/20 10:14:24;;;;;;;4.55;2.38;;;8.20;99.90;;;;;;5002559;28;20906;-74
2023/04/20 10:17:01;;;;;;;1.92;1.73;;;8.20;99.90;;;;;;5001972;28;20042;-75
2023/04/20 10:19:37;;;;;;;0.70;0.70;;;8.20;99.90;;;;;;4994144;28;20129;-75
2023/04/20 10:22:03;;;;;;;3.92;1.33;;;8.30;99.90;;;;;;4985517;28;20497;-75
2023/04/20 10:24:30;;;;;;;6.20;2.45;;;8.30;99.90;;;;;;5002631;28;20346;-75
2023/04/20 10:26:56;;;;;;;4.40;2.35;;;8.40;99.90;;;;;;5005787;28;20497;-76
2023/04/20 10:29:24;;;;;;;1.20;1.10;;;8.50;99.90;;;;;;5005161;28;20041;-77
2023/04/20 10:31:50;;;;;;;1.77;1.67;;;8.50;99.90;;;;;;5003949;28;20393;-77
2023/04/20 10:34:16;;;;;;;1.42;1.33;;;8.50;99.90;;;;;;5004870;28;20033;-76
2023/04/20 10:36:41;;;;;;;2.20;1.80;;;8.50;99.90;;;;;;5005051;28;20034;-76
2023/04/20 10:39:18;;;;;;;1.17;1.17;;;8.50;99.90;;;;;;5013216;28;20551;-77
2023/04/20 10:41:57;;;;;;;1.73;1.55;;;8.50;99.90;;;;;;5001158;28;20526;-75
2023/04/20 10:44:23;;;;;;;2.35;1.48;;;8.50;99.90;;;;;;4998530;28;20496;-74
2023/04/20 10:46:52;;;;;;;3.10;1.83;;;8.50;99.90;;;;;;5003446;28;20429;-77
2023/04/20 10:49:18;;;;;;;2.10;1.17;;;8.60;99.90;;;;;;5003112;28;20049;-75
2023/04/20 10:51:51;;;;;;;3.60;2.50;;;8.60;99.90;;;;;;5004475;28;20042;-74
2023/04/20 10:54:17;;;;;;;2.35;1.70;;;8.60;99.90;;;;;;4984577;28;20480;-74
2023/04/20 10:56:44;;;;;;;1.67;1.45;;;8.60;99.90;;;;;;5000642;28;20045;-76
2023/04/20 10:59:15;;;;;;;3.78;2.30;;;8.60;99.90;;;;;;5003197;28;20045;-75
2023/04/20 11:01:42;;;;;;;1.58;1.13;;;8.60;99.90;;;;;;5011772;28;20034;-76
2023/04/20 11:04:09;;;;;;;11.32;1.65;;;8.60;99.90;;;;;;5004464;28;20093;-76
2023/04/20 11:06:36;;;;;;;1.50;1.40;;;8.60;99.90;;;;;;5004371;28;20054;-75
2023/04/20 11:09:03;;;;;;;2.85;1.63;;;8.60;99.90;;;;;;5001877;28;20464;-75
2023/04/20 11:11:28;;;;;;;1.83;1.55;;;8.60;99.90;;;;;;5003767;28;20132;-76
2023/04/20 11:14:07;;;;;;;4.07;1.67;;;8.60;99.90;;;;;;5003734;28;20125;-75
2023/04/20 11:16:33;;;;;;;1.75;1.60;;;8.60;99.90;;;;;;5002566;28;20042;-75
2023/04/20 11:18:58;;;;;;;2.05;1.67;;;8.60;99.90;;;;;;5002761;28;20037;-75
2023/04/20 11:21:36;;;;;;;2.85;2.33;;;8.60;99.90;;;;;;5004608;28;20104;-75
2023/04/20 11:24:01;;;;;;;2.85;1.55;;;8.60;99.90;;;;;;5003546;28;20049;-75
2023/04/20 11:26:39;;;;;;;1.38;1.20;;;8.50;99.90;;;;;;5001412;28;20038;-76
2023/04/20 11:29:05;;;;;;;2.95;1.67;;;8.50;99.90;;;;;;5004263;28;20469;-76
2023/04/20 11:31:30;;;;;;;1.58;1.45;;;8.50;99.90;;;;;;5002492;28;20081;-75
2023/04/20 11:33:56;;;;;;;2.30;1.80;;;8.50;99.90;;;;;;5004008;28;20049;-75
2023/04/20 11:36:23;;;;;;;3.20;1.40;;;8.50;99.90;;;;;;4984863;28;20050;-76
2023/04/20 11:38:49;;;;;;;1.83;1.25;;;8.50;99.90;;;;;;4983238;28;20038;-75
2023/04/20 11:41:16;;;;;;;2.10;1.67;;;8.50;99.90;;;;;;4996900;28;20412;-75
2023/04/20 11:43:45;;;;;;;2.00;1.88;;;8.50;99.90;;;;;;5003628;28;20045;-75
2023/04/20 11:46:18;;;;;;;1.55;1.42;;;8.50;99.90;;;;;;5004111;28;20088;-76
2023/04/20 11:48:44;;;;;;;4.90;3.58;;;8.50;99.90;;;;;;5003402;28;20045;-76
2023/04/20 11:51:10;;;;;;;2.42;2.15;;;8.50;99.90;;;;;;5002009;28;20056;-76
2023/04/20 11:53:36;;;;;;;2.25;1.33;;;8.50;99.90;;;;;;5003013;28;20113;-75
2023/04/20 11:56:02;;;;;;;2.08;1.35;;;8.50;99.90;;;;;;5003477;28;20116;-75
2023/04/20 11:58:28;;;;;;;1.95;1.83;;;8.50;99.90;;;;;;5001777;28;20112;-73
2023/04/20 12:00:54;;;;;;;6.90;2.00;;;8.60;99.90;;;;;;5001003;28;20468;-74
2023/04/20 12:03:19;;;;;;;2.22;1.35;;;8.60;99.90;;;;;;5019101;28;20493;-74
2023/04/20 12:05:45;;;;;;;4.20;2.70;;;8.70;99.90;;;;;;5003330;28;20108;-74
2023/04/20 12:08:10;;;;;;;2.60;1.88;;;8.80;99.90;;;;;;5000543;28;20037;-74
2023/04/20 12:10:36;;;;;;;2.63;2.08;;;8.80;99.90;;;;;;5018354;28;20054;-73
2023/04/20 12:13:02;;;;;;;12.10;2.20;;;8.90;99.90;;;;;;4999435;28;20435;-74
2023/04/20 12:15:27;;;;;;;1.67;1.35;;;8.90;99.90;;;;;;5000884;28;20050;-74
2023/04/20 12:17:53;;;;;;;4.65;1.45;;;9.00;99.90;;;;;;5018609;28;20037;-74
2023/04/20 12:20:19;;;;;;;4.40;2.20;;;9.00;99.90;;;;;;5017044;28;20041;-72
2023/04/20 12:22:44;;;;;;;3.15;1.60;;;9.00;99.90;;;;;;5002043;28;20080;-74
2023/04/20 12:25:10;;;;;;;1.83;1.55;;;9.00;99.90;;;;;;5000958;28;20038;-74
2023/04/20 12:27:36;;;;;;;3.67;1.63;;;9.10;99.90;;;;;;5000382;28;20434;-73
2023/04/20 12:30:02;;;;;;;2.70;1.75;;;9.20;99.90;;;;;;5002878;28;20483;-74
2023/04/20 12:32:28;;;;;;;5.25;1.77;;;9.20;99.90;;;;;;5001331;28;20385;-74
2023/04/20 12:34:54;;;;;;;3.00;2.00;;;9.30;99.90;;;;;;5003179;28;20057;-73
2023/04/20 12:37:20;;;;;;;4.93;2.15;;;9.30;99.90;;;;;;4985455;28;20510;-74
2023/04/20 12:39:45;;;;;;;2.42;2.20;;;9.40;99.90;;;;;;5002356;28;20134;-73
2023/04/20 12:42:11;;;;;;;3.58;1.85;;;9.50;99.90;;;;;;5002624;28;20496;-73
2023/04/20 12:44:37;;;;;;;4.70;2.50;;;9.60;99.90;;;;;;5002483;28;20042;-73
2023/04/20 12:47:02;;;;;;;2.97;1.85;;;9.60;99.90;;;;;;5002341;28;20065;-74
2023/04/20 12:49:28;;;;;;;3.20;1.95;;;9.60;99.90;;;;;;5002258;28;20108;-74
2023/04/20 12:51:53;;;;;;;5.07;2.28;;;9.60;99.90;;;;;;5003099;28;20042;-73
2023/04/20 12:54:19;;;;;;;1.95;1.75;;;9.70;99.90;;;;;;5001618;28;20389;-74